createdAt,value
2023-05-07T00:02:12.978Z,19.48
2023-05-07T00:04:40.665Z,19.38
2023-05-07T00:07:08.140Z,19.03
2023-05-07T00:09:35.564Z,19.24
2023-05-07T00:12:03.663Z,19.32
2023-05-07T00:14:31.089Z,19.31
2023-05-07T00:16:58.545Z,19.11
2023-05-07T00:19:26.574Z,18.75
2023-05-07T00:21:57.065Z,18.98
2023-05-07T00:24:24.613Z,19.13
2023-05-07T00:26:53.748Z,19.17
2023-05-07T00:29:21.151Z,19.20
2023-05-07T00:31:50.593Z,19.25
2023-05-07T00:34:18.352Z,19.24
2023-05-07T00:36:45.964Z,19.13
2023-05-07T00:39:13.376Z,18.90
2023-05-07T00:41:41.096Z,19.02
2023-05-07T00:44:08.669Z,18.88
2023-05-07T00:46:36.268Z,19.09
2023-05-07T00:49:04.060Z,19.11
2023-05-07T00:51:31.742Z,19.08
2023-05-07T00:53:59.276Z,19.08
2023-05-07T00:56:27.458Z,18.92
2023-05-07T00:58:54.930Z,18.90
2023-05-07T01:01:22.497Z,18.99
2023-05-07T01:03:50.212Z,19.09
2023-05-07T01:06:18.622Z,19.14
2023-05-07T01:08:47.177Z,19.11
2023-05-07T01:11:15.272Z,19.16
2023-05-07T01:13:42.743Z,19.16
2023-05-07T01:16:10.645Z,18.94
2023-05-07T01:18:38.598Z,19.00
2023-05-07T01:21:07.867Z,19.04
2023-05-07T01:23:36.618Z,18.95
2023-05-07T01:26:04.513Z,18.99
2023-05-07T01:28:32.026Z,18.98
2023-05-07T01:31:02.845Z,18.91
2023-05-07T01:33:33.224Z,18.89
2023-05-07T01:36:03.258Z,18.88
2023-05-07T01:38:31.066Z,18.77
2023-05-07T01:40:58.960Z,18.72
2023-05-07T01:43:26.513Z,18.74
2023-05-07T01:45:54.636Z,18.76
2023-05-07T01:48:22.273Z,18.74
2023-05-07T01:50:49.865Z,18.72
2023-05-07T01:53:17.792Z,18.58
2023-05-07T01:55:46.277Z,18.53
2023-05-07T01:58:13.802Z,18.45
2023-05-07T02:00:41.964Z,18.40
2023-05-07T02:03:09.870Z,18.43
2023-05-07T02:05:37.886Z,18.47
2023-05-07T02:08:06.176Z,18.47
2023-05-07T02:10:33.933Z,18.41
2023-05-07T02:13:02.967Z,18.42
2023-05-07T02:15:30.536Z,18.39
2023-05-07T02:18:01.317Z,18.43
2023-05-07T02:20:29.274Z,18.49
2023-05-07T02:22:56.831Z,18.19
2023-05-07T02:25:25.077Z,18.05
2023-05-07T02:27:52.596Z,18.10
2023-05-07T02:30:22.448Z,17.84
2023-05-07T02:32:51.494Z,18.01
2023-05-07T02:35:18.997Z,18.10
2023-05-07T02:37:46.474Z,17.99
2023-05-07T02:40:14.442Z,18.06
2023-05-07T02:42:42.585Z,18.01
2023-05-07T02:45:10.650Z,17.99
2023-05-07T02:47:40.159Z,17.91
2023-05-07T02:50:08.425Z,17.98
2023-05-07T02:52:36.056Z,18.02
2023-05-07T02:55:03.979Z,17.32
2023-05-07T02:57:31.390Z,17.35
2023-05-07T02:59:59.235Z,17.36
2023-05-07T03:02:29.705Z,17.47
2023-05-07T03:04:57.169Z,17.47
2023-05-07T03:07:24.609Z,17.35
2023-05-07T03:09:52.271Z,17.49
2023-05-07T03:12:19.616Z,17.64
2023-05-07T03:14:47.000Z,17.74
2023-05-07T03:17:14.652Z,17.84
2023-05-07T03:19:42.008Z,17.83
2023-05-07T03:22:09.692Z,17.75
2023-05-07T03:24:37.633Z,17.66
2023-05-07T03:27:05.032Z,17.74
2023-05-07T03:29:32.463Z,17.80
2023-05-07T03:32:00.197Z,17.87
2023-05-07T03:34:27.633Z,17.78
2023-05-07T03:36:55.115Z,17.82
2023-05-07T03:39:23.909Z,17.96
2023-05-07T03:41:51.280Z,17.88
2023-05-07T03:44:18.709Z,17.84
2023-05-07T03:46:47.107Z,17.44
2023-05-07T03:49:14.497Z,17.53
2023-05-07T03:51:42.349Z,17.46
2023-05-07T03:54:10.272Z,17.40
2023-05-07T03:56:38.043Z,17.46
2023-05-07T03:59:05.486Z,17.13
2023-05-07T04:01:33.226Z,17.45
2023-05-07T04:04:01.051Z,17.53
2023-05-07T04:06:29.207Z,17.60
2023-05-07T04:08:56.703Z,17.49
2023-05-07T04:11:24.578Z,17.67
2023-05-07T04:13:51.997Z,17.75
2023-05-07T04:16:20.946Z,17.76
2023-05-07T04:18:48.787Z,17.82
2023-05-07T04:21:20.921Z,17.67
2023-05-07T04:23:49.576Z,17.74
2023-05-07T04:26:17.192Z,17.61
2023-05-07T04:28:44.700Z,17.77
2023-05-07T04:31:12.628Z,18.02
2023-05-07T04:33:40.346Z,17.88
2023-05-07T04:36:08.758Z,17.91
2023-05-07T04:38:37.075Z,18.07
2023-05-07T04:41:06.296Z,18.37
2023-05-07T04:43:34.538Z,18.43
2023-05-07T04:46:02.398Z,18.52
2023-05-07T04:48:30.281Z,18.87
2023-05-07T04:50:58.704Z,19.15
2023-05-07T04:53:26.452Z,19.31
2023-05-07T04:56:00.558Z,19.42
2023-05-07T04:58:32.647Z,19.49
2023-05-07T05:01:01.472Z,19.49
2023-05-07T05:03:29.678Z,19.32
2023-05-07T05:06:00.393Z,19.64
2023-05-07T05:08:28.203Z,19.72
2023-05-07T05:10:56.004Z,19.70
2023-05-07T05:13:23.540Z,19.55
2023-05-07T05:15:51.101Z,19.62
2023-05-07T05:18:19.081Z,19.70
2023-05-07T05:20:46.704Z,19.85
2023-05-07T05:23:14.286Z,19.93
2023-05-07T05:25:42.027Z,20.09
2023-05-07T05:28:09.918Z,20.33
2023-05-07T05:30:37.498Z,20.20
2023-05-07T05:33:05.226Z,20.08
2023-05-07T05:35:33.150Z,20.10
2023-05-07T05:38:02.495Z,19.94
2023-05-07T05:40:30.698Z,20.20
2023-05-07T05:42:58.115Z,20.37
2023-05-07T05:45:26.031Z,20.31
2023-05-07T05:47:53.781Z,20.16
2023-05-07T05:50:21.373Z,20.45
2023-05-07T05:52:49.165Z,20.63
2023-05-07T05:55:17.558Z,21.13
2023-05-07T05:57:45.059Z,21.20
2023-05-07T06:00:13.188Z,21.26
2023-05-07T06:02:46.062Z,21.26
2023-05-07T06:05:14.661Z,21.43
2023-05-07T06:07:42.982Z,21.14
2023-05-07T06:10:10.960Z,21.50
2023-05-07T06:12:39.252Z,21.49
2023-05-07T06:15:07.236Z,21.52
2023-05-07T06:17:35.196Z,21.62
2023-05-07T06:20:03.273Z,21.94
2023-05-07T06:22:30.663Z,22.07
2023-05-07T06:24:58.172Z,21.96
2023-05-07T06:27:26.398Z,22.29
2023-05-07T06:29:54.322Z,22.31
2023-05-07T06:32:21.849Z,22.39
2023-05-07T06:34:50.104Z,22.70
2023-05-07T06:37:17.872Z,22.64
2023-05-07T06:39:46.297Z,22.74
2023-05-07T06:42:14.087Z,22.88
2023-05-07T06:44:41.882Z,22.85
2023-05-07T06:47:09.537Z,22.84
2023-05-07T06:49:39.316Z,23.05
2023-05-07T06:52:06.965Z,22.97
2023-05-07T06:54:34.374Z,22.56
2023-05-07T06:57:02.073Z,22.71
2023-05-07T06:59:29.663Z,22.89
2023-05-07T07:01:57.290Z,22.91
2023-05-07T07:04:26.384Z,22.91
2023-05-07T07:06:55.187Z,22.88
2023-05-07T07:09:24.049Z,22.98
2023-05-07T07:11:51.998Z,23.10
2023-05-07T07:14:19.938Z,23.07
2023-05-07T07:16:47.933Z,22.91
2023-05-07T07:19:16.402Z,22.97
2023-05-07T07:21:44.092Z,22.87
2023-05-07T07:24:12.440Z,22.79
2023-05-07T07:26:41.004Z,22.70
2023-05-07T07:29:08.432Z,22.68
2023-05-07T07:31:36.436Z,22.76
2023-05-07T07:34:04.178Z,22.62
2023-05-07T07:36:42.446Z,22.68
2023-05-07T07:39:14.273Z,22.61
2023-05-07T07:41:42.418Z,22.50
2023-05-07T07:44:10.606Z,22.55
2023-05-07T07:46:38.410Z,22.64
2023-05-07T07:49:06.110Z,22.21
2023-05-07T07:51:33.569Z,22.38
2023-05-07T07:54:03.421Z,22.19
2023-05-07T07:56:34.167Z,22.32
2023-05-07T07:59:02.570Z,22.34
2023-05-07T08:01:33.875Z,21.94
2023-05-07T08:04:04.262Z,22.06
2023-05-07T08:06:33.293Z,22.27
2023-05-07T08:09:00.814Z,22.18
2023-05-07T08:11:28.958Z,22.20
2023-05-07T08:13:57.180Z,22.37
2023-05-07T08:16:25.086Z,22.31
2023-05-07T08:18:53.597Z,22.31
2023-05-07T08:21:21.316Z,22.35
2023-05-07T08:23:48.905Z,21.98
2023-05-07T08:26:16.657Z,21.94
2023-05-07T08:28:44.377Z,22.24
2023-05-07T08:31:11.920Z,22.47
2023-05-07T08:33:40.031Z,22.46
2023-05-07T08:36:07.927Z,22.37
2023-05-07T08:38:35.501Z,22.36
2023-05-07T08:41:03.345Z,22.35
2023-05-07T08:43:33.670Z,22.09
2023-05-07T08:46:03.175Z,22.13
2023-05-07T08:48:32.220Z,21.98
2023-05-07T08:51:01.076Z,21.56
2023-05-07T08:53:28.786Z,21.97
2023-05-07T08:55:57.053Z,22.05
2023-05-07T08:58:24.718Z,22.00
2023-05-07T09:00:52.903Z,21.99
2023-05-07T09:03:21.209Z,22.55
2023-05-07T09:05:49.161Z,22.10
2023-05-07T09:08:17.515Z,21.97
2023-05-07T09:10:46.104Z,22.09
2023-05-07T09:13:15.621Z,22.61
2023-05-07T09:15:43.807Z,22.46
2023-05-07T09:18:11.975Z,22.90
2023-05-07T09:20:40.512Z,22.63
2023-05-07T09:23:09.050Z,22.82
2023-05-07T09:25:37.711Z,23.06
2023-05-07T09:28:08.189Z,23.45
2023-05-07T09:30:36.816Z,23.67
2023-05-07T09:33:05.214Z,23.76
2023-05-07T09:35:33.885Z,23.86
2023-05-07T09:38:04.203Z,23.91
2023-05-07T09:40:32.920Z,23.90
2023-05-07T09:43:12.856Z,24.19
2023-05-07T09:45:42.178Z,23.49
2023-05-07T09:48:10.758Z,24.01
2023-05-07T09:50:50.829Z,24.02
2023-05-07T09:53:19.664Z,24.28
2023-05-07T09:55:47.777Z,24.03
2023-05-07T09:58:16.110Z,23.94
2023-05-07T10:00:44.262Z,23.54
2023-05-07T10:03:13.425Z,23.64
2023-05-07T10:05:41.847Z,23.06
2023-05-07T10:08:10.489Z,23.62
2023-05-07T10:10:39.095Z,23.66
2023-05-07T10:13:11.671Z,23.07
2023-05-07T10:15:40.331Z,23.27
2023-05-07T10:18:08.714Z,23.06
2023-05-07T10:20:37.649Z,23.06
2023-05-07T10:23:07.035Z,23.17
2023-05-07T10:25:35.406Z,23.18
2023-05-07T10:28:08.630Z,23.25
2023-05-07T10:31:02.567Z,23.34
2023-05-07T10:33:32.611Z,23.04
2023-05-07T10:36:02.473Z,23.19
2023-05-07T10:38:30.470Z,23.41
2023-05-07T10:40:59.721Z,23.41
2023-05-07T10:43:43.164Z,23.80
2023-05-07T10:46:21.183Z,23.41
2023-05-07T10:49:01.968Z,23.70
2023-05-07T10:51:32.246Z,23.07
2023-05-07T10:54:13.330Z,23.67
2023-05-07T10:56:44.377Z,23.58
2023-05-07T10:59:21.570Z,23.82
2023-05-07T11:02:07.639Z,23.86
2023-05-07T11:04:36.377Z,23.40
2023-05-07T11:07:30.993Z,23.86
2023-05-07T11:10:02.474Z,23.89
2023-05-07T11:12:47.181Z,24.74
2023-05-07T11:15:18.739Z,25.18
2023-05-07T11:17:57.681Z,25.11
2023-05-07T11:21:01.649Z,25.14
2023-05-07T11:23:36.682Z,24.73
2023-05-07T11:26:07.285Z,24.82
2023-05-07T11:28:40.279Z,25.32
2023-05-07T11:31:08.747Z,25.38
2023-05-07T11:33:37.034Z,25.24
2023-05-07T11:36:06.489Z,25.17
2023-05-07T11:38:39.587Z,25.17
2023-05-07T11:41:09.038Z,24.79
2023-05-07T11:43:37.117Z,25.39
2023-05-07T11:46:10.098Z,25.39
2023-05-07T11:48:38.018Z,25.62
2023-05-07T11:51:07.107Z,25.12
2023-05-07T11:53:42.101Z,25.06
2023-05-07T11:56:11.687Z,25.40
2023-05-07T11:58:39.386Z,25.33
2023-05-07T12:01:10.064Z,25.39
2023-05-07T12:03:38.865Z,25.07
2023-05-07T12:06:07.683Z,25.94
2023-05-07T12:08:37.902Z,25.54
2023-05-07T12:11:08.643Z,25.51
2023-05-07T12:13:36.103Z,25.94
2023-05-07T12:16:06.489Z,26.04
2023-05-07T12:18:35.053Z,25.88
2023-05-07T12:21:02.559Z,26.18
2023-05-07T12:23:30.816Z,26.37
2023-05-07T12:25:58.481Z,26.31
2023-05-07T12:28:25.875Z,25.41
2023-05-07T12:30:53.366Z,26.12
2023-05-07T12:33:25.754Z,25.29
2023-05-07T12:35:56.289Z,25.63
2023-05-07T12:38:24.034Z,24.90
2023-05-07T12:40:54.696Z,24.84
2023-05-07T12:43:25.828Z,25.19
2023-05-07T12:45:56.094Z,24.82
2023-05-07T12:48:24.596Z,25.31
2023-05-07T12:50:52.826Z,25.91
2023-05-07T12:53:22.435Z,26.10
2023-05-07T12:55:52.298Z,26.31
2023-05-07T12:58:28.853Z,25.85
2023-05-07T13:01:00.889Z,25.97
2023-05-07T13:03:31.503Z,25.59
2023-05-07T13:06:03.917Z,25.97
2023-05-07T13:08:37.345Z,25.84
2023-05-07T13:11:05.687Z,25.83
2023-05-07T13:13:34.408Z,25.72
2023-05-07T13:16:06.735Z,25.84
2023-05-07T13:18:35.171Z,25.74
2023-05-07T13:21:03.101Z,25.85
2023-05-07T13:23:30.527Z,25.86
2023-05-07T13:25:58.255Z,25.46
2023-05-07T13:28:26.051Z,25.53
2023-05-07T13:30:55.486Z,26.21
2023-05-07T13:33:23.289Z,26.19
2023-05-07T13:35:50.671Z,25.81
2023-05-07T13:38:18.942Z,25.95
2023-05-07T13:40:46.620Z,25.96
2023-05-07T13:43:14.364Z,25.68
2023-05-07T13:45:41.841Z,25.24
2023-05-07T13:48:09.730Z,25.99
2023-05-07T13:50:37.442Z,26.12
2023-05-07T13:53:04.885Z,25.48
2023-05-07T13:55:33.086Z,25.83
2023-05-07T13:58:01.851Z,25.70
2023-05-07T14:00:29.978Z,25.88
2023-05-07T14:02:57.873Z,25.66
2023-05-07T14:05:25.690Z,25.54
2023-05-07T14:07:53.628Z,25.73
2023-05-07T14:10:21.411Z,25.68
2023-05-07T14:12:48.995Z,25.90
2023-05-07T14:15:17.130Z,26.03
2023-05-07T14:17:45.037Z,26.04
2023-05-07T14:20:13.643Z,26.13
2023-05-07T14:22:41.421Z,25.54
2023-05-07T14:25:10.835Z,25.25
2023-05-07T14:27:38.382Z,25.28
2023-05-07T14:30:06.743Z,24.85
2023-05-07T14:32:35.098Z,25.19
2023-05-07T14:35:02.609Z,25.24
2023-05-07T14:37:30.062Z,25.68
2023-05-07T14:39:57.865Z,25.12
2023-05-07T14:42:25.302Z,24.99
2023-05-07T14:44:54.139Z,25.46
2023-05-07T14:47:21.875Z,25.54
2023-05-07T14:49:49.257Z,24.97
2023-05-07T14:52:16.677Z,25.27
2023-05-07T14:54:44.489Z,25.35
2023-05-07T14:57:14.506Z,25.15
2023-05-07T14:59:42.460Z,25.45
2023-05-07T15:02:12.477Z,25.29
2023-05-07T15:04:46.583Z,24.79
2023-05-07T15:07:16.228Z,24.96
2023-05-07T15:09:44.171Z,25.15
2023-05-07T15:12:12.601Z,25.09
2023-05-07T15:14:40.425Z,25.56
2023-05-07T15:17:08.566Z,25.07
2023-05-07T15:19:36.170Z,25.16
2023-05-07T15:22:03.989Z,24.79
2023-05-07T15:24:31.900Z,24.81
2023-05-07T15:26:59.569Z,25.10
2023-05-07T15:29:27.279Z,24.98
2023-05-07T15:31:55.400Z,24.91
2023-05-07T15:34:23.524Z,25.25
2023-05-07T15:36:51.324Z,25.03
2023-05-07T15:39:18.906Z,24.52
2023-05-07T15:41:46.371Z,24.55
2023-05-07T15:44:14.063Z,24.87
2023-05-07T15:46:42.720Z,24.90
2023-05-07T15:49:10.178Z,24.42
2023-05-07T15:51:37.975Z,24.66
2023-05-07T15:54:05.490Z,24.48
2023-05-07T15:56:33.911Z,24.40
2023-05-07T15:59:02.464Z,23.93
2023-05-07T16:01:30.103Z,23.89
2023-05-07T16:03:58.020Z,24.42
2023-05-07T16:06:25.712Z,23.69
2023-05-07T16:08:53.172Z,23.11
2023-05-07T16:11:21.036Z,23.38
2023-05-07T16:13:48.482Z,23.72
2023-05-07T16:16:16.045Z,24.07
2023-05-07T16:18:43.703Z,23.31
2023-05-07T16:21:11.126Z,23.50
2023-05-07T16:23:38.776Z,23.41
2023-05-07T16:26:06.444Z,23.17
2023-05-07T16:28:33.973Z,22.95
2023-05-07T16:31:01.901Z,23.27
2023-05-07T16:33:29.551Z,23.56
2023-05-07T16:35:57.022Z,23.43
2023-05-07T16:38:24.577Z,22.99
2023-05-07T16:40:52.706Z,23.15
2023-05-07T16:43:20.148Z,23.15
2023-05-07T16:45:48.538Z,22.84
2023-05-07T16:48:16.600Z,22.94
2023-05-07T16:50:44.674Z,23.48
2023-05-07T16:53:12.316Z,23.78
2023-05-07T16:55:41.013Z,23.08
2023-05-07T16:58:10.704Z,22.38
2023-05-07T17:00:50.181Z,22.61
2023-05-07T17:03:19.110Z,22.09
2023-05-07T17:05:47.032Z,22.35
2023-05-07T17:08:14.693Z,22.18
2023-05-07T17:10:42.484Z,21.76
2023-05-07T17:13:09.886Z,22.15
2023-05-07T17:15:37.249Z,22.85
2023-05-07T17:18:05.021Z,22.71
2023-05-07T17:20:32.536Z,22.32
2023-05-07T17:22:59.926Z,22.65
2023-05-07T17:25:27.675Z,22.55
2023-05-07T17:27:55.113Z,22.24
2023-05-07T17:30:22.522Z,22.33
2023-05-07T17:32:50.591Z,22.19
2023-05-07T17:35:18.187Z,22.00
2023-05-07T17:37:52.283Z,22.08
2023-05-07T17:40:22.276Z,22.15
2023-05-07T17:42:51.329Z,21.26
2023-05-07T17:45:20.492Z,21.41
2023-05-07T17:47:48.033Z,21.24
2023-05-07T17:50:15.592Z,21.56
2023-05-07T17:52:43.264Z,21.11
2023-05-07T17:55:10.927Z,21.02
2023-05-07T17:57:38.642Z,20.48
2023-05-07T18:00:07.869Z,20.86
2023-05-07T18:02:36.937Z,20.66
2023-05-07T18:05:04.711Z,20.63
2023-05-07T18:07:33.125Z,21.13
2023-05-07T18:10:00.902Z,20.81
2023-05-07T18:12:28.325Z,20.72
2023-05-07T18:14:55.815Z,21.31
2023-05-07T18:17:24.320Z,21.05
2023-05-07T18:19:54.709Z,21.21
2023-05-07T18:22:23.002Z,20.12
2023-05-07T18:24:52.338Z,20.73
2023-05-07T18:27:19.789Z,20.49
2023-05-07T18:29:47.654Z,20.43
2023-05-07T18:32:15.275Z,20.37
2023-05-07T18:34:42.769Z,20.45
2023-05-07T18:37:10.648Z,20.65
2023-05-07T18:39:38.083Z,20.84
2023-05-07T18:42:05.558Z,20.41
2023-05-07T18:44:37.385Z,20.31
2023-05-07T18:47:06.077Z,20.60
2023-05-07T18:49:34.632Z,20.68
2023-05-07T18:52:02.645Z,20.59
2023-05-07T18:54:30.060Z,20.71
2023-05-07T18:56:57.979Z,20.76
2023-05-07T18:59:25.599Z,20.55
2023-05-07T19:01:53.201Z,19.97
2023-05-07T19:04:21.101Z,20.20
2023-05-07T19:06:48.733Z,19.94
2023-05-07T19:09:16.163Z,19.73
2023-05-07T19:11:43.921Z,19.57
2023-05-07T19:14:11.428Z,20.09
2023-05-07T19:16:39.405Z,20.35
2023-05-07T19:19:07.202Z,20.38
2023-05-07T19:21:34.632Z,20.17
2023-05-07T19:24:02.085Z,20.31
2023-05-07T19:26:29.901Z,20.30
2023-05-07T19:29:12.148Z,20.16
2023-05-07T19:31:44.820Z,19.46
2023-05-07T19:34:13.995Z,20.01
2023-05-07T19:36:42.810Z,19.65
2023-05-07T19:39:11.503Z,19.83
2023-05-07T19:41:38.975Z,20.34
2023-05-07T19:44:06.465Z,20.51
2023-05-07T19:46:34.312Z,20.65
2023-05-07T19:49:02.534Z,20.74
2023-05-07T19:51:32.834Z,20.41
2023-05-07T19:54:02.255Z,20.46
2023-05-07T19:56:29.955Z,20.63
2023-05-07T19:58:57.355Z,20.39
2023-05-07T20:01:25.117Z,20.27
2023-05-07T20:03:53.119Z,20.23
2023-05-07T20:06:20.615Z,20.30
2023-05-07T20:08:48.030Z,20.34
2023-05-07T20:11:15.854Z,20.52
2023-05-07T20:13:43.476Z,20.64
2023-05-07T20:16:11.631Z,20.29
2023-05-07T20:18:39.630Z,20.28
2023-05-07T20:21:07.160Z,20.25
2023-05-07T20:23:34.562Z,19.82
2023-05-07T20:26:02.289Z,20.13
2023-05-07T20:28:29.764Z,20.26
2023-05-07T20:30:57.170Z,19.46
2023-05-07T20:33:24.986Z,19.14
2023-05-07T20:35:52.392Z,19.03
2023-05-07T20:38:19.894Z,19.00
2023-05-07T20:40:47.642Z,18.72
2023-05-07T20:43:15.193Z,18.24
2023-05-07T20:45:42.651Z,18.50
2023-05-07T20:48:10.394Z,18.19
2023-05-07T20:50:37.839Z,18.09
2023-05-07T20:53:05.529Z,18.11
2023-05-07T20:55:33.330Z,18.35
2023-05-07T20:58:00.786Z,18.14
2023-05-07T21:00:28.284Z,18.25
2023-05-07T21:02:55.995Z,18.23
2023-05-07T21:05:23.514Z,18.25
2023-05-07T21:07:50.935Z,18.31
2023-05-07T21:10:18.624Z,18.56
2023-05-07T21:12:46.089Z,18.71
2023-05-07T21:15:13.481Z,18.65
2023-05-07T21:17:41.254Z,18.34
2023-05-07T21:20:09.207Z,18.63
2023-05-07T21:22:36.729Z,18.39
2023-05-07T21:25:04.782Z,17.44
2023-05-07T21:27:32.186Z,17.66
2023-05-07T21:30:04.608Z,17.28
2023-05-07T21:32:34.124Z,17.42
2023-05-07T21:35:01.816Z,17.65
2023-05-07T21:37:29.728Z,17.84
2023-05-07T21:39:57.385Z,17.86
2023-05-07T21:42:25.306Z,17.84
2023-05-07T21:44:52.754Z,17.67
2023-05-07T21:47:20.461Z,17.96
2023-05-07T21:49:47.941Z,18.10
2023-05-07T21:52:17.032Z,18.21
2023-05-07T21:54:44.937Z,18.29
2023-05-07T21:57:12.368Z,18.31
2023-05-07T21:59:39.953Z,18.37
2023-05-07T22:02:07.737Z,18.32
2023-05-07T22:04:35.470Z,18.46
2023-05-07T22:07:03.094Z,18.43
2023-05-07T22:09:30.618Z,18.43
2023-05-07T22:11:58.312Z,18.36
2023-05-07T22:14:25.809Z,18.36
2023-05-07T22:16:53.473Z,18.48
2023-05-07T22:19:21.356Z,18.34
2023-05-07T22:21:49.178Z,18.53
2023-05-07T22:24:16.653Z,18.42
2023-05-07T22:26:45.184Z,18.33
2023-05-07T22:29:12.602Z,18.47
2023-05-07T22:31:40.035Z,18.50
2023-05-07T22:34:07.743Z,18.42
2023-05-07T22:36:35.129Z,18.42
2023-05-07T22:39:03.484Z,18.20
2023-05-07T22:41:31.149Z,18.03
2023-05-07T22:43:58.983Z,18.04
2023-05-07T22:46:26.663Z,18.14
2023-05-07T22:48:54.794Z,18.12
2023-05-07T22:51:22.231Z,18.08
2023-05-07T22:53:49.649Z,17.92
2023-05-07T22:56:17.272Z,17.91
2023-05-07T22:58:44.739Z,17.85
2023-05-07T23:01:13.852Z,17.92
2023-05-07T23:03:41.756Z,17.82
2023-05-07T23:06:09.185Z,17.86
2023-05-07T23:08:36.660Z,17.75
2023-05-07T23:11:04.382Z,17.58
2023-05-07T23:13:31.866Z,17.55
2023-05-07T23:15:59.264Z,17.65
2023-05-07T23:18:28.101Z,17.56
2023-05-07T23:20:55.568Z,17.60
2023-05-07T23:23:22.993Z,17.43
2023-05-07T23:25:53.792Z,17.61
2023-05-07T23:28:21.265Z,17.55
2023-05-07T23:30:48.714Z,17.49
2023-05-07T23:33:16.428Z,17.55
2023-05-07T23:35:43.826Z,17.58
2023-05-07T23:38:11.201Z,17.45
2023-05-07T23:40:38.840Z,17.45
2023-05-07T23:43:06.247Z,17.42
2023-05-07T23:45:33.627Z,17.28
2023-05-07T23:48:01.339Z,17.31
2023-05-07T23:50:28.768Z,17.18
2023-05-07T23:52:56.343Z,17.16
2023-05-07T23:55:24.002Z,17.16
2023-05-07T23:57:51.492Z,17.15
